createdAt,value
2018-12-20T00:01:25.078Z,8.60
2018-12-20T00:03:54.069Z,12.27
2018-12-20T00:06:23.241Z,9.13
2018-12-20T00:08:52.395Z,9.70
2018-12-20T00:11:21.431Z,10.10
2018-12-20T00:13:50.640Z,10.50
2018-12-20T00:16:20.009Z,12.03
2018-12-20T00:18:49.221Z,12.00
2018-12-20T00:21:18.466Z,7.87
2018-12-20T00:23:47.528Z,11.17
2018-12-20T00:26:16.617Z,14.37
2018-12-20T00:28:45.782Z,13.00
2018-12-20T00:31:14.909Z,10.60
2018-12-20T00:33:44.138Z,11.17
2018-12-20T00:36:13.290Z,9.40
2018-12-20T00:38:42.537Z,9.47
2018-12-20T00:41:51.994Z,12.30
2018-12-20T00:44:20.954Z,10.50
2018-12-20T00:46:50.173Z,11.57
2018-12-20T00:49:19.273Z,10.37
2018-12-20T00:51:48.581Z,10.77
2018-12-20T00:54:17.867Z,10.80
2018-12-20T00:56:47.029Z,11.57
2018-12-20T00:59:16.137Z,10.90
2018-12-20T01:01:45.259Z,12.47
2018-12-20T01:04:14.407Z,11.90
2018-12-20T01:06:43.567Z,11.20
2018-12-20T01:09:12.881Z,12.07
2018-12-20T01:11:42.304Z,12.33
2018-12-20T01:14:11.597Z,10.57
2018-12-20T01:16:40.617Z,10.60
2018-12-20T01:19:09.749Z,11.47
2018-12-20T01:21:39.048Z,12.90
2018-12-20T01:24:10.296Z,10.83
2018-12-20T01:27:26.371Z,10.90
2018-12-20T01:30:05.507Z,12.47
2018-12-20T01:32:47.617Z,12.90
2018-12-20T01:38:43.774Z,13.03
2018-12-20T01:41:51.567Z,14.00
2018-12-20T01:44:53.484Z,12.80
2018-12-20T01:47:27.322Z,11.63
2018-12-20T01:49:59.995Z,14.73
2018-12-20T01:52:56.205Z,12.87
2018-12-20T01:55:25.283Z,13.57
2018-12-20T01:57:54.298Z,15.50
2018-12-20T02:00:34.468Z,12.63
2018-12-20T02:03:03.676Z,15.23
2018-12-20T02:05:32.848Z,15.70
2018-12-20T02:08:01.983Z,15.33
2018-12-20T02:10:31.164Z,15.63
2018-12-20T02:13:00.198Z,16.50
2018-12-20T02:15:29.231Z,15.77
2018-12-20T02:17:58.399Z,15.70
2018-12-20T02:20:27.427Z,16.60
2018-12-20T02:22:56.455Z,15.40
2018-12-20T02:25:25.860Z,15.37
2018-12-20T02:27:54.960Z,15.23
2018-12-20T02:30:24.305Z,17.00
2018-12-20T02:32:54.015Z,14.60
2018-12-20T02:35:23.429Z,13.00
2018-12-20T02:37:52.725Z,15.30
2018-12-20T02:40:22.028Z,14.30
2018-12-20T02:42:51.229Z,15.73
2018-12-20T02:45:20.479Z,16.50
2018-12-20T02:47:49.586Z,14.90
2018-12-20T02:50:18.560Z,14.33
2018-12-20T02:52:48.071Z,14.17
2018-12-20T02:55:17.398Z,15.10
2018-12-20T02:57:46.600Z,17.07
2018-12-20T03:00:15.870Z,15.40
2018-12-20T03:02:45.261Z,15.27
2018-12-20T03:05:14.399Z,16.40
2018-12-20T03:07:43.756Z,14.30
2018-12-20T03:10:12.900Z,15.70
2018-12-20T03:12:41.943Z,15.70
2018-12-20T03:15:19.806Z,15.40
2018-12-20T03:17:46.039Z,14.80
2018-12-20T03:20:15.144Z,16.00
2018-12-20T03:22:44.149Z,15.20
2018-12-20T03:25:13.225Z,16.33
2018-12-20T03:27:42.195Z,14.90
2018-12-20T03:30:11.221Z,17.60
2018-12-20T03:32:40.613Z,16.27
2018-12-20T03:35:09.894Z,16.50
2018-12-20T03:37:39.528Z,17.57
2018-12-20T03:40:09.045Z,15.83
2018-12-20T03:42:38.236Z,17.33
2018-12-20T03:45:07.441Z,16.23
2018-12-20T03:47:36.751Z,17.37
2018-12-20T03:50:06.144Z,16.30
2018-12-20T03:52:35.138Z,14.17
2018-12-20T03:55:04.683Z,17.17
2018-12-20T03:57:33.929Z,15.60
2018-12-20T04:00:02.873Z,16.43
2018-12-20T04:02:31.906Z,15.13
2018-12-20T04:05:01.134Z,15.30
2018-12-20T04:07:30.537Z,12.53
2018-12-20T04:09:59.720Z,13.60
2018-12-20T04:12:29.010Z,14.80
2018-12-20T04:14:58.107Z,14.50
2018-12-20T04:17:29.113Z,14.63
2018-12-20T04:19:58.165Z,15.17
2018-12-20T04:22:27.062Z,12.43
2018-12-20T04:24:56.245Z,14.30
2018-12-20T04:27:25.407Z,14.67
2018-12-20T04:29:54.434Z,13.53
2018-12-20T04:32:23.315Z,11.90
2018-12-20T04:34:52.393Z,13.97
2018-12-20T04:37:21.397Z,13.40
2018-12-20T04:39:50.526Z,10.50
2018-12-20T04:42:19.866Z,13.07
2018-12-20T04:44:49.035Z,12.00
2018-12-20T04:47:18.147Z,12.73
2018-12-20T04:49:47.477Z,12.57
2018-12-20T04:52:16.663Z,15.30
2018-12-20T04:54:45.999Z,11.80
2018-12-20T04:57:15.009Z,10.70
2018-12-20T04:59:44.272Z,11.30
2018-12-20T05:02:13.401Z,11.60
2018-12-20T05:04:42.489Z,12.73
2018-12-20T05:07:11.767Z,11.43
2018-12-20T05:09:40.874Z,11.07
2018-12-20T05:12:10.055Z,11.20
2018-12-20T05:14:39.873Z,10.33
2018-12-20T05:17:09.302Z,10.90
2018-12-20T05:19:38.627Z,11.63
2018-12-20T05:22:07.838Z,10.13
2018-12-20T05:24:36.910Z,10.30
2018-12-20T05:27:06.073Z,10.23
2018-12-20T05:29:35.207Z,11.27
2018-12-20T05:32:04.553Z,9.50
2018-12-20T05:34:33.614Z,10.80
2018-12-20T05:37:02.849Z,11.10
2018-12-20T05:39:32.192Z,10.37
2018-12-20T05:42:01.520Z,11.03
2018-12-20T05:44:30.851Z,10.40
2018-12-20T05:47:00.169Z,8.13
2018-12-20T05:49:29.138Z,10.80
2018-12-20T05:51:58.297Z,9.47
2018-12-20T05:54:27.494Z,9.63
2018-12-20T05:56:56.784Z,9.80
2018-12-20T05:59:25.864Z,10.50
2018-12-20T06:01:55.108Z,9.03
2018-12-20T06:04:24.221Z,12.40
2018-12-20T06:06:53.314Z,10.63
2018-12-20T06:09:22.583Z,11.20
2018-12-20T06:11:51.850Z,10.57
2018-12-20T06:14:21.114Z,9.90
2018-12-20T06:16:50.364Z,9.70
2018-12-20T06:19:19.433Z,11.67
2018-12-20T06:21:48.548Z,11.10
2018-12-20T06:24:17.614Z,9.67
2018-12-20T06:26:46.613Z,10.50
2018-12-20T06:29:15.553Z,12.50
2018-12-20T06:31:44.624Z,9.87
2018-12-20T06:34:13.605Z,9.70
2018-12-20T06:36:42.794Z,11.20
2018-12-20T06:39:11.725Z,11.93
2018-12-20T06:41:44.462Z,12.90
2018-12-20T06:44:13.600Z,13.40
2018-12-20T06:46:47.793Z,12.23
2018-12-20T06:49:17.393Z,12.90
2018-12-20T06:51:46.564Z,15.23
2018-12-20T06:54:15.544Z,13.53
2018-12-20T06:56:44.649Z,13.47
2018-12-20T06:59:13.650Z,13.23
2018-12-20T07:01:42.704Z,12.77
2018-12-20T07:04:11.749Z,13.67
2018-12-20T07:06:40.789Z,13.00
2018-12-20T07:09:10.905Z,13.37
2018-12-20T07:11:39.960Z,14.03
2018-12-20T07:14:08.957Z,13.20
2018-12-20T07:16:38.064Z,12.30
2018-12-20T07:19:07.205Z,11.97
2018-12-20T07:21:36.181Z,12.83
2018-12-20T07:24:05.345Z,11.67
2018-12-20T07:26:34.305Z,12.60
2018-12-20T07:29:03.334Z,12.93
2018-12-20T07:31:32.382Z,12.40
2018-12-20T07:34:01.461Z,13.43
2018-12-20T07:36:30.475Z,12.93
2018-12-20T07:38:59.572Z,12.90
2018-12-20T07:41:28.667Z,12.23
2018-12-20T07:43:57.960Z,12.07
2018-12-20T07:46:26.993Z,10.80
2018-12-20T07:48:56.388Z,10.77
2018-12-20T07:51:25.534Z,11.77
2018-12-20T07:53:54.754Z,11.83
2018-12-20T07:56:23.777Z,10.80
2018-12-20T07:58:52.770Z,11.10
2018-12-20T08:01:23.411Z,11.90
2018-12-20T08:03:52.502Z,12.50
2018-12-20T08:06:21.529Z,11.67
2018-12-20T08:08:50.493Z,10.43
2018-12-20T08:11:19.609Z,12.03
2018-12-20T08:13:48.639Z,12.53
2018-12-20T08:16:17.729Z,12.40
2018-12-20T08:18:46.794Z,12.03
2018-12-20T08:21:15.916Z,12.97
2018-12-20T08:23:44.892Z,11.97
2018-12-20T08:26:13.974Z,11.50
2018-12-20T08:28:43.121Z,13.50
2018-12-20T08:31:12.269Z,12.63
2018-12-20T08:33:41.270Z,11.20
2018-12-20T08:36:10.261Z,8.17
2018-12-20T08:38:39.228Z,8.83
2018-12-20T08:41:09.144Z,9.67
2018-12-20T08:43:38.501Z,8.90
2018-12-20T08:46:07.485Z,9.57
2018-12-20T08:48:36.543Z,10.20
2018-12-20T08:51:05.657Z,8.93
2018-12-20T08:53:34.726Z,7.87
2018-12-20T08:56:03.833Z,10.60
2018-12-20T08:58:40.361Z,8.40
2018-12-20T09:01:09.424Z,8.13
2018-12-20T09:03:38.374Z,8.83
2018-12-20T09:06:07.534Z,8.27
2018-12-20T09:08:58.479Z,6.70
2018-12-20T09:11:27.517Z,7.93
2018-12-20T09:13:56.488Z,7.40
2018-12-20T09:16:25.445Z,8.70
2018-12-20T09:18:54.534Z,8.47
2018-12-20T09:21:23.545Z,6.80
2018-12-20T09:23:52.646Z,8.50
2018-12-20T09:26:21.812Z,6.77
2018-12-20T09:28:50.894Z,7.50
2018-12-20T09:31:19.998Z,7.73
2018-12-20T09:33:49.130Z,6.23
2018-12-20T09:36:18.186Z,7.10
2018-12-20T09:39:13.327Z,6.00
2018-12-20T09:41:49.480Z,6.33
2018-12-20T09:44:26.721Z,7.40
2018-12-20T09:47:11.799Z,7.30
2018-12-20T09:49:45.330Z,6.57
2018-12-20T09:52:14.550Z,6.40
2018-12-20T09:54:46.809Z,7.23
2018-12-20T09:57:23.817Z,6.10
2018-12-20T09:59:56.622Z,6.50
2018-12-20T10:02:28.897Z,6.00
2018-12-20T10:05:02.040Z,5.20
2018-12-20T10:07:35.850Z,6.53
2018-12-20T10:10:08.999Z,5.93
2018-12-20T10:12:46.186Z,5.00
2018-12-20T10:15:19.042Z,5.20
2018-12-20T10:17:56.109Z,5.30
2018-12-20T10:20:28.965Z,7.20
2018-12-20T10:22:58.581Z,6.00
2018-12-20T10:25:31.637Z,5.07
2018-12-20T10:28:02.447Z,5.03
2018-12-20T10:30:35.072Z,4.83
2018-12-20T10:33:04.197Z,5.03
2018-12-20T10:35:33.301Z,5.23
2018-12-20T10:38:02.362Z,6.43
2018-12-20T10:40:31.453Z,3.80
2018-12-20T10:43:00.473Z,4.00
2018-12-20T10:45:29.458Z,6.07
2018-12-20T10:47:58.663Z,3.43
2018-12-20T10:50:27.723Z,3.27
2018-12-20T10:52:56.869Z,4.27
2018-12-20T10:55:26.105Z,5.30
2018-12-20T10:57:55.129Z,5.97
2018-12-20T11:00:24.766Z,5.70
2018-12-20T11:02:58.970Z,4.73
2018-12-20T11:06:08.429Z,3.70
2018-12-20T11:08:50.376Z,3.27
2018-12-20T11:11:21.362Z,3.87
2018-12-20T11:13:50.837Z,2.87
2018-12-20T11:16:19.934Z,2.87
2018-12-20T11:18:48.922Z,3.60
2018-12-20T11:21:17.886Z,3.70
2018-12-20T11:23:46.850Z,3.23
2018-12-20T11:26:16.408Z,4.10
2018-12-20T11:28:45.965Z,3.90
2018-12-20T11:31:14.996Z,3.60
2018-12-20T11:33:44.058Z,2.77
2018-12-20T11:36:13.444Z,3.07
2018-12-20T11:38:42.394Z,3.67
2018-12-20T11:41:12.341Z,3.80
2018-12-20T11:43:41.375Z,4.70
2018-12-20T11:46:10.418Z,2.87
2018-12-20T11:48:43.345Z,3.17
2018-12-20T11:51:12.373Z,4.60
2018-12-20T11:53:42.269Z,3.80
2018-12-20T11:56:37.765Z,3.60
2018-12-20T11:59:14.468Z,3.30
2018-12-20T12:01:51.370Z,4.37
2018-12-20T12:04:20.385Z,4.13
2018-12-20T12:07:09.835Z,3.50
2018-12-20T12:09:46.298Z,4.77
2018-12-20T12:12:15.582Z,3.90
2018-12-20T12:14:44.617Z,4.17
2018-12-20T12:17:13.667Z,4.50
2018-12-20T12:19:42.740Z,4.67
2018-12-20T12:23:01.973Z,4.53
2018-12-20T12:25:38.322Z,3.27
2018-12-20T12:28:34.997Z,3.67
2018-12-20T12:31:04.082Z,4.33
2018-12-20T12:33:34.893Z,3.00
2018-12-20T12:36:38.197Z,3.83
2018-12-20T12:39:21.509Z,2.67
2018-12-20T12:41:58.194Z,3.77
2018-12-20T12:44:30.794Z,3.40
2018-12-20T12:47:09.009Z,3.57
2018-12-20T12:49:42.555Z,4.50
2018-12-20T12:52:15.733Z,4.70
2018-12-20T12:54:52.613Z,3.90
2018-12-20T12:57:23.640Z,3.70
2018-12-20T12:59:56.722Z,3.43
2018-12-20T13:02:29.660Z,2.20
2018-12-20T13:05:02.566Z,2.60
2018-12-20T13:07:35.809Z,3.43
2018-12-20T13:10:08.710Z,2.73
2018-12-20T13:12:41.874Z,2.77
2018-12-20T13:15:14.095Z,3.70
2018-12-20T13:17:51.169Z,4.00
2018-12-20T13:20:25.076Z,4.77
2018-12-20T13:22:58.062Z,2.50
2018-12-20T13:25:31.008Z,3.27
2018-12-20T13:28:04.549Z,3.57
2018-12-20T13:30:43.499Z,3.70
2018-12-20T13:33:20.338Z,3.53
2018-12-20T13:35:53.150Z,3.33
2018-12-20T13:38:26.213Z,3.67
2018-12-20T13:40:55.290Z,3.60
2018-12-20T13:43:24.310Z,3.30
2018-12-20T13:45:53.458Z,4.37
2018-12-20T13:48:39.786Z,3.97
2018-12-20T13:51:08.813Z,4.57
2018-12-20T13:53:38.830Z,3.50
2018-12-20T13:56:07.845Z,3.70
2018-12-20T13:58:37.835Z,4.20
2018-12-20T14:01:07.288Z,3.73
2018-12-20T14:07:00.775Z,3.70
2018-12-20T14:09:29.828Z,3.70
2018-12-20T14:11:58.913Z,4.23
2018-12-20T14:14:28.081Z,3.00
2018-12-20T14:17:23.873Z,4.60
2018-12-20T14:19:57.509Z,3.83
2018-12-20T14:22:27.935Z,3.73
2018-12-20T14:25:00.963Z,4.17
2018-12-20T14:27:37.508Z,3.33
2018-12-20T14:30:09.400Z,4.53
2018-12-20T14:32:38.459Z,3.60
2018-12-20T14:35:08.589Z,3.70
2018-12-20T14:37:37.782Z,4.30
2018-12-20T14:40:09.733Z,2.70
2018-12-20T14:42:38.877Z,3.97
2018-12-20T14:45:08.193Z,3.77
2018-12-20T14:47:37.269Z,3.80
2018-12-20T14:50:07.841Z,3.17
2018-12-20T14:52:36.820Z,4.77
2018-12-20T14:55:07.102Z,3.53
2018-12-20T14:57:36.157Z,4.40
2018-12-20T15:00:07.374Z,3.57
2018-12-20T15:02:37.789Z,2.90
2018-12-20T15:05:07.455Z,3.87
2018-12-20T15:08:02.885Z,4.33
2018-12-20T15:10:40.057Z,3.40
2018-12-20T15:13:09.173Z,3.57
2018-12-20T15:15:45.610Z,3.50
2018-12-20T15:18:14.593Z,3.63
2018-12-20T15:20:51.779Z,3.20
2018-12-20T15:23:31.373Z,4.10
2018-12-20T15:26:00.433Z,5.33
2018-12-20T15:28:32.718Z,4.00
2018-12-20T15:31:16.005Z,4.47
2018-12-20T15:33:52.686Z,6.03
2018-12-20T15:36:25.669Z,4.77
2018-12-20T15:38:58.283Z,5.13
2018-12-20T15:41:31.348Z,5.60
2018-12-20T15:44:03.965Z,6.70
2018-12-20T15:46:33.169Z,5.00
2018-12-20T15:49:05.765Z,5.10
2018-12-20T15:51:42.189Z,7.00
2018-12-20T15:54:15.309Z,3.87
2018-12-20T15:56:48.044Z,5.53
2018-12-20T15:59:24.837Z,4.63
2018-12-20T16:01:54.717Z,5.73
2018-12-20T16:04:27.217Z,4.80
2018-12-20T16:06:56.794Z,6.93
2018-12-20T16:09:26.009Z,5.77
2018-12-20T16:11:55.209Z,6.30
2018-12-20T16:14:24.517Z,4.90
2018-12-20T16:16:57.461Z,6.03
2018-12-20T16:19:30.205Z,5.67
2018-12-20T16:22:03.556Z,5.87
2018-12-20T16:24:40.834Z,7.07
2018-12-20T16:27:13.050Z,6.20
2018-12-20T16:29:46.326Z,6.80
2018-12-20T16:32:23.141Z,5.43
2018-12-20T16:34:55.917Z,8.30
2018-12-20T16:37:28.041Z,6.03
2018-12-20T16:40:00.635Z,7.60
2018-12-20T16:42:37.213Z,8.77
2018-12-20T16:45:10.469Z,7.70
2018-12-20T16:47:41.720Z,8.60
2018-12-20T16:50:15.840Z,6.70
2018-12-20T16:52:48.766Z,7.33
2018-12-20T16:55:21.237Z,9.97
2018-12-20T16:57:57.736Z,8.60
2018-12-20T17:00:30.938Z,8.50
2018-12-20T17:03:07.421Z,11.80
2018-12-20T17:05:40.738Z,9.90
2018-12-20T17:08:13.950Z,11.27
2018-12-20T17:10:49.753Z,9.03
2018-12-20T17:13:23.076Z,11.30
2018-12-20T17:15:58.217Z,11.03
2018-12-20T17:18:30.826Z,11.90
2018-12-20T17:21:04.200Z,12.33
2018-12-20T17:23:37.335Z,12.33
2018-12-20T17:26:10.233Z,10.47
2018-12-20T17:28:43.329Z,11.87
2018-12-20T17:31:20.985Z,12.57
2018-12-20T17:33:57.845Z,13.40
2018-12-20T17:36:30.974Z,12.67
2018-12-20T17:39:06.118Z,12.83
2018-12-20T17:41:40.109Z,12.67
2018-12-20T17:44:13.116Z,14.63
2018-12-20T17:46:50.133Z,14.30
2018-12-20T17:49:30.671Z,14.37
2018-12-20T17:52:01.660Z,12.07
2018-12-20T17:54:34.656Z,12.77
2018-12-20T17:57:07.693Z,13.27
2018-12-20T17:59:44.728Z,12.53
2018-12-20T18:02:17.778Z,12.60
2018-12-20T18:04:54.533Z,15.93
2018-12-20T18:07:32.462Z,14.60
2018-12-20T18:10:08.001Z,12.83
2018-12-20T18:12:44.649Z,12.00
2018-12-20T18:15:17.649Z,11.80
2018-12-20T18:17:55.577Z,12.80
2018-12-20T18:20:32.637Z,14.37
2018-12-20T18:23:05.327Z,12.77
2018-12-20T18:25:38.450Z,13.00
2018-12-20T18:28:11.620Z,11.57
2018-12-20T18:30:44.552Z,11.30
2018-12-20T18:33:17.644Z,13.10
2018-12-20T18:35:50.681Z,11.67
2018-12-20T18:38:23.700Z,14.27
2018-12-20T18:40:56.897Z,10.77
2018-12-20T18:43:29.975Z,12.83
2018-12-20T18:46:06.677Z,11.00
2018-12-20T18:48:39.685Z,12.10
2018-12-20T18:51:16.371Z,13.03
2018-12-20T18:53:49.229Z,11.33
2018-12-20T18:56:22.496Z,13.50
2018-12-20T18:58:55.600Z,12.83
2018-12-20T19:01:32.726Z,10.87
2018-12-20T19:04:05.913Z,11.83
2018-12-20T19:06:39.109Z,12.23
2018-12-20T19:09:11.965Z,13.73
2018-12-20T19:11:45.100Z,11.50
2018-12-20T19:14:18.033Z,13.23
2018-12-20T19:16:51.042Z,13.43
2018-12-20T19:19:24.314Z,13.10
2018-12-20T19:21:57.386Z,11.10
2018-12-20T19:24:31.134Z,12.60
2018-12-20T19:27:08.652Z,12.80
2018-12-20T19:29:45.714Z,14.30
2018-12-20T19:32:18.885Z,11.77
2018-12-20T19:34:55.842Z,12.80
2018-12-20T19:37:28.888Z,13.90
2018-12-20T19:40:07.657Z,11.20
2018-12-20T19:42:40.841Z,14.07
2018-12-20T19:45:13.962Z,12.90
2018-12-20T19:47:47.608Z,12.93
2018-12-20T19:50:21.842Z,14.43
2018-12-20T19:52:55.402Z,13.10
2018-12-20T19:55:29.429Z,16.03
2018-12-20T19:58:06.496Z,15.93
2018-12-20T20:00:39.601Z,15.20
2018-12-20T20:03:12.793Z,15.27
2018-12-20T20:05:45.774Z,15.67
2018-12-20T20:08:18.751Z,16.43
2018-12-20T20:10:51.738Z,15.17
2018-12-20T20:13:30.698Z,15.27
2018-12-20T20:16:00.421Z,18.17
2018-12-20T20:18:33.594Z,16.70
2018-12-20T20:21:06.589Z,15.37
2018-12-20T20:23:39.481Z,16.23
2018-12-20T20:26:13.052Z,16.30
2018-12-20T20:28:45.797Z,17.20
2018-12-20T20:31:19.053Z,16.43
2018-12-20T20:33:52.239Z,17.57
2018-12-20T20:36:25.373Z,16.13
2018-12-20T20:39:02.161Z,15.47
2018-12-20T20:41:35.160Z,17.47
2018-12-20T20:44:08.629Z,17.93
2018-12-20T20:46:41.513Z,18.17
2018-12-20T20:49:14.829Z,16.90
2018-12-20T20:51:51.722Z,19.03
2018-12-20T20:54:24.769Z,16.07
2018-12-20T20:56:57.812Z,17.90
2018-12-20T20:59:34.734Z,16.80
2018-12-20T21:02:07.986Z,17.83
2018-12-20T21:04:41.521Z,15.73
2018-12-20T21:07:14.236Z,16.63
2018-12-20T21:09:47.160Z,15.97
2018-12-20T21:12:22.930Z,14.70
2018-12-20T21:14:55.457Z,15.00
2018-12-20T21:17:28.494Z,17.30
2018-12-20T21:20:01.576Z,14.90
2018-12-20T21:22:34.861Z,16.30
2018-12-20T21:25:08.615Z,17.87
2018-12-20T21:27:42.201Z,16.47
2018-12-20T21:30:15.315Z,15.70
2018-12-20T21:32:48.177Z,15.10
2018-12-20T21:35:21.206Z,12.87
2018-12-20T21:37:54.341Z,16.20
2018-12-20T21:40:31.185Z,15.60
2018-12-20T21:43:04.321Z,15.57
2018-12-20T21:45:37.261Z,14.87
2018-12-20T21:48:10.461Z,17.00
2018-12-20T21:50:47.347Z,14.80
2018-12-20T21:53:24.160Z,13.90
2018-12-20T21:55:58.057Z,15.40
2018-12-20T21:58:31.215Z,14.37
2018-12-20T22:18:47.586Z,13.43
2018-12-20T22:21:20.708Z,11.23
2018-12-20T22:23:53.973Z,15.10
2018-12-20T22:26:26.882Z,13.03
2018-12-20T22:28:59.642Z,12.57
2018-12-20T22:31:33.689Z,14.23
2018-12-20T22:34:05.953Z,14.00
2018-12-20T22:36:39.036Z,12.17
2018-12-20T22:39:11.077Z,13.40
2018-12-20T22:41:43.209Z,12.90
2018-12-20T22:44:16.201Z,13.33
2018-12-20T22:46:48.513Z,12.83
2018-12-20T22:49:21.410Z,12.20
2018-12-20T22:51:54.745Z,14.17
2018-12-20T22:54:31.477Z,13.13
2018-12-20T22:57:04.182Z,12.90
2018-12-20T22:59:37.304Z,10.80
2018-12-20T23:02:17.880Z,12.70
2018-12-20T23:04:48.678Z,12.13
2018-12-20T23:07:20.808Z,12.50
2018-12-20T23:09:53.213Z,10.20
2018-12-20T23:12:26.093Z,9.53
2018-12-20T23:14:59.069Z,8.90
2018-12-20T23:17:31.822Z,9.70
2018-12-20T23:20:05.753Z,9.10
2018-12-20T23:22:42.161Z,8.17
2018-12-20T23:25:14.784Z,8.27
2018-12-20T23:27:47.741Z,8.47
2018-12-20T23:30:20.561Z,6.67
2018-12-20T23:32:53.350Z,8.13
2018-12-20T23:35:26.282Z,7.77
2018-12-20T23:38:02.431Z,5.43
2018-12-20T23:40:34.641Z,6.43
2018-12-20T23:43:07.380Z,7.33
2018-12-20T23:45:40.529Z,7.03
2018-12-20T23:48:11.182Z,7.80
2018-12-20T23:50:47.564Z,9.23
2018-12-20T23:53:20.489Z,6.60
2018-12-20T23:55:53.533Z,6.70
2018-12-20T23:58:26.453Z,8.60
